createdAt,value
2018-10-12T00:01:16.821Z,12.61
2018-10-12T00:03:45.664Z,12.63
2018-10-12T00:06:14.186Z,12.67
2018-10-12T00:08:42.745Z,12.56
2018-10-12T00:11:12.050Z,12.37
2018-10-12T00:13:40.573Z,12.08
2018-10-12T00:16:09.217Z,11.95
2018-10-12T00:18:37.784Z,11.85
2018-10-12T00:21:06.384Z,11.84
2018-10-12T00:23:35.605Z,11.82
2018-10-12T00:26:04.099Z,11.77
2018-10-12T00:28:32.805Z,11.72
2018-10-12T00:31:01.788Z,11.68
2018-10-12T00:33:31.363Z,11.71
2018-10-12T00:36:00.103Z,11.73
2018-10-12T00:38:28.737Z,11.75
2018-10-12T00:40:57.461Z,11.79
2018-10-12T00:43:26.002Z,11.83
2018-10-12T00:45:55.611Z,11.87
2018-10-12T00:48:24.138Z,11.88
2018-10-12T00:50:52.678Z,11.87
2018-10-12T00:53:21.260Z,11.86
2018-10-12T00:55:50.300Z,11.84
2018-10-12T00:58:18.858Z,11.82
2018-10-12T01:00:47.618Z,11.81
2018-10-12T01:03:16.270Z,11.80
2018-10-12T01:05:44.779Z,11.77
2018-10-12T01:08:13.487Z,11.77
2018-10-12T01:10:42.176Z,11.77
2018-10-12T01:13:10.937Z,11.71
2018-10-12T01:15:39.483Z,11.70
2018-10-12T01:18:09.085Z,11.62
2018-10-12T01:20:38.101Z,11.59
2018-10-12T01:23:06.963Z,11.52
2018-10-12T01:25:35.768Z,11.42
2018-10-12T01:28:04.520Z,11.34
2018-10-12T01:30:33.045Z,11.29
2018-10-12T01:33:05.935Z,11.20
2018-10-12T01:35:35.050Z,11.10
2018-10-12T01:38:03.683Z,11.09
2018-10-12T01:40:32.899Z,11.11
2018-10-12T01:43:02.121Z,11.14
2018-10-12T01:45:31.173Z,11.09
2018-10-12T01:47:59.734Z,11.06
2018-10-12T01:50:28.353Z,10.91
2018-10-12T01:52:56.870Z,10.82
2018-10-12T01:55:25.617Z,10.74
2018-10-12T01:57:54.131Z,10.65
2018-10-12T02:00:22.779Z,10.58
2018-10-12T02:02:51.346Z,10.56
2018-10-12T02:05:20.501Z,10.55
2018-10-12T02:07:50.033Z,10.52
2018-10-12T02:10:18.599Z,10.52
2018-10-12T02:12:47.103Z,10.48
2018-10-12T02:15:15.949Z,10.45
2018-10-12T02:17:44.524Z,10.45
2018-10-12T02:20:13.353Z,10.46
2018-10-12T02:22:42.359Z,10.47
2018-10-12T02:25:11.567Z,10.46
2018-10-12T02:27:40.069Z,10.45
2018-10-12T02:30:09.135Z,10.46
2018-10-12T02:32:37.945Z,10.41
2018-10-12T02:35:07.653Z,10.39
2018-10-12T02:37:36.333Z,10.38
2018-10-12T02:40:05.026Z,10.45
2018-10-12T02:42:33.582Z,10.53
2018-10-12T02:45:02.209Z,10.58
2018-10-12T02:47:30.755Z,10.61
2018-10-12T02:49:59.279Z,10.66
2018-10-12T02:52:27.927Z,10.70
2018-10-12T02:54:56.523Z,10.74
2018-10-12T02:57:25.118Z,10.75
2018-10-12T02:59:53.891Z,10.79
2018-10-12T03:02:22.488Z,10.83
2018-10-12T03:04:51.124Z,10.85
2018-10-12T03:07:19.766Z,10.86
2018-10-12T03:09:48.537Z,10.88
2018-10-12T03:12:17.245Z,10.91
2018-10-12T03:14:45.876Z,10.92
2018-10-12T03:17:14.379Z,10.95
2018-10-12T03:19:42.842Z,10.97
2018-10-12T03:22:11.805Z,11.04
2018-10-12T03:24:41.616Z,11.13
2018-10-12T03:27:10.445Z,11.28
2018-10-12T03:29:39.331Z,11.42
2018-10-12T03:32:08.022Z,11.56
2018-10-12T03:34:36.713Z,11.67
2018-10-12T03:37:05.418Z,11.77
2018-10-12T03:39:34.207Z,11.90
2018-10-12T03:42:02.738Z,11.93
2018-10-12T03:44:31.385Z,11.97
2018-10-12T03:46:59.937Z,12.00
2018-10-12T03:49:28.701Z,12.02
2018-10-12T03:51:57.368Z,12.00
2018-10-12T03:54:25.992Z,11.96
2018-10-12T03:56:54.707Z,11.93
2018-10-12T03:59:23.793Z,11.86
2018-10-12T04:01:52.453Z,11.82
2018-10-12T04:04:22.966Z,11.78
2018-10-12T04:06:52.654Z,11.74
2018-10-12T04:09:21.318Z,11.66
2018-10-12T04:11:49.912Z,11.63
2018-10-12T04:14:18.655Z,11.62
2018-10-12T04:16:47.246Z,11.62
2018-10-12T04:19:15.747Z,11.56
2018-10-12T04:21:44.362Z,11.48
2018-10-12T04:24:12.963Z,11.44
2018-10-12T04:26:41.536Z,11.41
2018-10-12T04:29:10.226Z,11.39
2018-10-12T04:31:39.821Z,11.38
2018-10-12T04:34:08.441Z,11.36
2018-10-12T04:36:37.904Z,11.37
2018-10-12T04:39:17.597Z,11.36
2018-10-12T04:41:46.239Z,11.39
2018-10-12T04:44:15.832Z,11.44
2018-10-12T04:46:44.859Z,11.48
2018-10-12T04:49:15.242Z,11.51
2018-10-12T04:51:46.747Z,11.55
2018-10-12T04:54:16.633Z,11.56
2018-10-12T04:56:45.821Z,11.49
2018-10-12T04:59:14.369Z,11.44
2018-10-12T05:01:43.141Z,11.37
2018-10-12T05:04:11.761Z,11.35
2018-10-12T05:06:40.510Z,11.29
2018-10-12T05:09:10.477Z,11.21
2018-10-12T05:11:39.272Z,11.08
2018-10-12T05:14:08.020Z,11.00
2018-10-12T05:16:36.987Z,10.87
2018-10-12T05:19:05.841Z,10.83
2018-10-12T05:21:34.542Z,10.80
2018-10-12T05:24:03.321Z,10.80
2018-10-12T05:26:31.985Z,10.82
2018-10-12T05:29:00.652Z,10.89
2018-10-12T05:31:29.261Z,10.94
2018-10-12T05:33:57.849Z,11.03
2018-10-12T05:36:26.519Z,11.10
2018-10-12T05:38:55.144Z,11.17
2018-10-12T05:41:23.777Z,11.20
2018-10-12T05:43:52.410Z,11.26
2018-10-12T05:46:20.909Z,11.30
2018-10-12T05:49:01.555Z,11.35
2018-10-12T05:51:30.161Z,11.41
2018-10-12T05:53:59.205Z,11.48
2018-10-12T05:56:31.087Z,11.50
2018-10-12T05:58:59.931Z,11.49
2018-10-12T06:01:28.899Z,11.48
2018-10-12T06:03:57.412Z,11.50
2018-10-12T06:06:26.071Z,11.54
2018-10-12T06:08:54.931Z,11.58
2018-10-12T06:11:24.586Z,11.62
2018-10-12T06:13:54.270Z,11.66
2018-10-12T06:16:23.114Z,11.74
2018-10-12T06:18:51.941Z,11.82
2018-10-12T06:21:20.441Z,11.93
2018-10-12T06:23:48.978Z,12.02
2018-10-12T06:26:17.458Z,12.10
2018-10-12T06:28:46.056Z,12.16
2018-10-12T06:31:14.597Z,12.22
2018-10-12T06:33:43.196Z,12.32
2018-10-12T06:36:11.723Z,12.40
2018-10-12T06:38:40.319Z,12.51
2018-10-12T06:41:08.988Z,12.62
2018-10-12T06:43:37.598Z,12.74
2018-10-12T06:46:06.737Z,12.85
2018-10-12T06:48:35.385Z,12.95
2018-10-12T06:51:04.081Z,13.03
2018-10-12T06:53:32.694Z,13.12
2018-10-12T06:56:01.225Z,13.19
2018-10-12T06:58:29.896Z,13.27
2018-10-12T07:00:58.457Z,13.35
2018-10-12T07:03:27.059Z,13.43
2018-10-12T07:05:57.810Z,13.53
2018-10-12T07:08:26.327Z,13.66
2018-10-12T07:10:54.830Z,13.74
2018-10-12T07:13:23.401Z,13.84
2018-10-12T07:15:51.987Z,13.92
2018-10-12T07:18:20.758Z,13.98
2018-10-12T07:20:49.389Z,14.09
2018-10-12T07:23:17.992Z,14.18
2018-10-12T07:25:46.781Z,14.24
2018-10-12T07:28:16.298Z,14.32
2018-10-12T07:30:44.958Z,14.41
2018-10-12T07:33:13.529Z,14.51
2018-10-12T07:35:42.176Z,14.60
2018-10-12T07:38:10.693Z,14.68
2018-10-12T07:40:39.306Z,14.73
2018-10-12T07:43:07.893Z,14.85
2018-10-12T07:45:36.570Z,14.95
2018-10-12T07:48:05.263Z,15.01
2018-10-12T07:50:34.004Z,15.07
2018-10-12T07:53:02.498Z,15.17
2018-10-12T07:55:31.041Z,15.21
2018-10-12T07:57:59.619Z,15.32
2018-10-12T08:00:28.455Z,15.41
2018-10-12T08:02:57.011Z,15.51
2018-10-12T08:05:25.640Z,15.59
2018-10-12T08:07:54.193Z,15.72
2018-10-12T08:10:23.793Z,15.85
2018-10-12T08:12:52.386Z,15.94
2018-10-12T08:15:20.941Z,16.05
2018-10-12T08:17:49.632Z,16.13
2018-10-12T08:20:18.639Z,16.23
2018-10-12T08:22:47.213Z,16.27
2018-10-12T08:25:15.808Z,16.34
2018-10-12T08:27:44.606Z,16.44
2018-10-12T08:30:13.307Z,16.52
2018-10-12T08:32:41.952Z,16.66
2018-10-12T08:35:10.796Z,16.74
2018-10-12T08:37:39.469Z,16.83
2018-10-12T08:40:08.046Z,16.89
2018-10-12T08:42:37.080Z,17.06
2018-10-12T08:45:06.845Z,17.22
2018-10-12T08:47:35.338Z,17.33
2018-10-12T08:50:03.881Z,17.46
2018-10-12T08:52:32.637Z,17.61
2018-10-12T08:55:01.299Z,17.73
2018-10-12T08:57:30.184Z,17.85
2018-10-12T08:59:58.939Z,17.96
2018-10-12T09:02:28.561Z,18.08
2018-10-12T09:04:57.238Z,18.20
2018-10-12T09:07:25.926Z,18.31
2018-10-12T09:09:54.574Z,18.42
2018-10-12T09:12:24.110Z,18.53
2018-10-12T09:14:53.357Z,18.67
2018-10-12T09:17:21.897Z,18.80
2018-10-12T09:19:50.549Z,18.86
2018-10-12T09:22:19.101Z,18.97
2018-10-12T09:24:47.776Z,19.06
2018-10-12T09:27:16.478Z,19.16
2018-10-12T09:29:45.026Z,19.27
2018-10-12T09:32:14.004Z,19.37
2018-10-12T09:34:42.493Z,19.48
2018-10-12T09:37:11.037Z,19.60
2018-10-12T09:39:39.650Z,19.67
2018-10-12T09:42:08.321Z,19.80
2018-10-12T09:44:37.023Z,19.92
2018-10-12T09:47:05.536Z,20.03
2018-10-12T09:49:34.139Z,20.08
2018-10-12T09:52:02.812Z,20.13
2018-10-12T09:54:31.402Z,20.21
2018-10-12T09:57:05.117Z,20.26
2018-10-12T09:59:33.773Z,20.35
2018-10-12T10:02:07.875Z,20.44
2018-10-12T10:04:37.129Z,20.49
2018-10-12T10:07:05.873Z,20.61
2018-10-12T10:09:34.605Z,20.71
2018-10-12T10:12:03.270Z,20.83
2018-10-12T10:14:31.981Z,20.93
2018-10-12T10:17:00.625Z,21.03
2018-10-12T10:19:29.126Z,21.12
2018-10-12T10:21:57.782Z,21.21
2018-10-12T10:24:26.415Z,21.31
2018-10-12T10:26:55.242Z,21.38
2018-10-12T10:29:23.871Z,21.45
2018-10-12T10:31:53.863Z,21.58
2018-10-12T10:34:22.058Z,21.74
2018-10-12T10:36:52.842Z,21.83
2018-10-12T10:39:21.403Z,21.93
2018-10-12T10:41:50.043Z,22.06
2018-10-12T10:44:18.728Z,22.14
2018-10-12T10:46:47.269Z,22.26
2018-10-12T10:49:15.930Z,22.41
2018-10-12T10:51:44.497Z,22.49
2018-10-12T10:54:13.662Z,22.61
2018-10-12T10:56:42.216Z,22.73
2018-10-12T10:59:10.771Z,22.84
2018-10-12T11:01:39.803Z,23.03
2018-10-12T11:04:08.665Z,23.21
2018-10-12T11:06:37.358Z,23.44
2018-10-12T11:09:09.104Z,23.69
2018-10-12T11:11:37.651Z,23.95
2018-10-12T11:14:06.199Z,24.22
2018-10-12T11:16:34.963Z,24.50
2018-10-12T11:19:03.715Z,24.99
2018-10-12T11:21:33.080Z,25.57
2018-10-12T11:24:01.698Z,26.13
2018-10-12T11:26:30.428Z,26.61
2018-10-12T11:28:58.944Z,26.95
2018-10-12T11:31:28.609Z,27.33
2018-10-12T11:33:57.351Z,27.63
2018-10-12T11:36:26.550Z,27.98
2018-10-12T11:38:55.189Z,28.18
2018-10-12T11:41:23.868Z,28.50
2018-10-12T11:43:52.438Z,28.76
2018-10-12T11:46:21.200Z,28.87
2018-10-12T11:48:49.734Z,29.12
2018-10-12T11:51:18.489Z,29.35
2018-10-12T11:53:47.091Z,29.64
2018-10-12T11:56:15.800Z,29.67
2018-10-12T11:58:44.338Z,29.90
2018-10-12T12:01:12.851Z,30.20
2018-10-12T12:03:41.429Z,29.90
2018-10-12T12:06:10.260Z,30.01
2018-10-12T12:08:38.811Z,30.15
2018-10-12T12:11:07.707Z,30.26
2018-10-12T12:13:36.343Z,30.44
2018-10-12T12:16:05.019Z,30.48
2018-10-12T12:18:33.587Z,30.83
2018-10-12T12:21:02.368Z,30.82
2018-10-12T12:23:31.110Z,31.23
2018-10-12T12:25:59.646Z,31.63
2018-10-12T12:28:28.264Z,31.78
2018-10-12T12:30:56.953Z,31.71
2018-10-12T12:33:26.890Z,31.62
2018-10-12T12:35:55.812Z,31.62
2018-10-12T12:38:24.017Z,31.77
2018-10-12T12:40:52.790Z,31.86
2018-10-12T12:43:21.284Z,32.03
2018-10-12T12:45:49.777Z,32.06
2018-10-12T12:48:19.890Z,31.87
2018-10-12T12:50:48.109Z,31.89
2018-10-12T12:53:16.697Z,31.64
2018-10-12T12:55:45.393Z,31.69
2018-10-12T12:58:14.045Z,31.49
2018-10-12T13:00:42.624Z,31.50
2018-10-12T13:03:11.206Z,31.83
2018-10-12T13:05:40.074Z,32.24
2018-10-12T13:08:09.735Z,32.05
2018-10-12T13:10:38.261Z,32.22
2018-10-12T13:13:07.147Z,32.25
2018-10-12T13:15:35.907Z,32.13
2018-10-12T13:18:04.624Z,32.27
2018-10-12T13:20:33.239Z,32.76
2018-10-12T13:23:01.953Z,33.14
2018-10-12T13:25:30.614Z,33.40
2018-10-12T13:27:59.163Z,33.49
2018-10-12T13:30:27.732Z,33.29
2018-10-12T13:32:56.234Z,33.31
2018-10-12T13:35:25.932Z,33.38
2018-10-12T13:37:54.527Z,33.39
2018-10-12T13:40:23.078Z,33.38
2018-10-12T13:42:51.633Z,33.36
2018-10-12T13:45:20.367Z,33.42
2018-10-12T13:47:48.917Z,33.38
2018-10-12T13:50:17.510Z,33.63
2018-10-12T13:52:46.202Z,33.36
2018-10-12T13:55:14.744Z,33.23
2018-10-12T13:57:43.440Z,32.93
2018-10-12T14:00:12.178Z,32.31
2018-10-12T14:02:42.153Z,32.48
2018-10-12T14:05:10.764Z,32.56
2018-10-12T14:07:39.327Z,32.77
2018-10-12T14:10:07.907Z,32.54
2018-10-12T14:12:36.513Z,32.31
2018-10-12T14:15:05.911Z,32.17
2018-10-12T14:17:34.606Z,32.02
2018-10-12T14:20:03.324Z,32.21
2018-10-12T14:22:31.804Z,32.01
2018-10-12T14:25:00.430Z,31.75
2018-10-12T14:27:29.094Z,31.42
2018-10-12T14:29:57.778Z,31.35
2018-10-12T14:32:26.513Z,31.18
2018-10-12T14:34:55.193Z,31.15
2018-10-12T14:37:23.789Z,31.14
2018-10-12T14:39:52.456Z,31.26
2018-10-12T14:42:21.046Z,31.07
2018-10-12T14:44:49.720Z,30.43
2018-10-12T14:47:18.287Z,29.91
2018-10-12T14:49:46.920Z,29.65
2018-10-12T14:52:15.491Z,29.44
2018-10-12T14:54:44.042Z,29.71
2018-10-12T14:57:19.326Z,29.60
2018-10-12T14:59:49.073Z,29.61
2018-10-12T15:02:18.351Z,29.38
2018-10-12T15:04:47.007Z,29.28
2018-10-12T15:07:15.695Z,29.06
2018-10-12T15:09:44.388Z,28.44
2018-10-12T15:12:12.955Z,27.70
2018-10-12T15:15:24.390Z,27.10
2018-10-12T15:17:54.168Z,26.49
2018-10-12T15:20:24.259Z,26.19
2018-10-12T15:22:53.613Z,25.78
2018-10-12T15:25:22.210Z,25.54
2018-10-12T15:27:50.805Z,25.23
2018-10-12T15:30:20.215Z,24.97
2018-10-12T15:32:48.785Z,24.75
2018-10-12T15:35:17.340Z,24.47
2018-10-12T15:37:46.166Z,24.15
2018-10-12T15:40:14.904Z,23.79
2018-10-12T15:42:50.206Z,23.44
2018-10-12T15:45:18.885Z,23.16
2018-10-12T15:47:47.585Z,22.85
2018-10-12T15:50:16.286Z,22.53
2018-10-12T15:52:44.852Z,22.20
2018-10-12T15:55:13.491Z,21.82
2018-10-12T15:57:42.113Z,21.49
2018-10-12T16:00:11.819Z,21.17
2018-10-12T16:02:41.401Z,20.95
2018-10-12T16:05:10.054Z,20.69
2018-10-12T16:07:38.739Z,20.46
2018-10-12T16:10:08.500Z,20.31
2018-10-12T16:12:37.276Z,20.18
2018-10-12T16:15:06.054Z,20.05
2018-10-12T16:17:34.618Z,19.93
2018-10-12T16:20:03.306Z,19.78
2018-10-12T16:22:31.917Z,19.67
2018-10-12T16:25:11.950Z,19.57
2018-10-12T16:27:40.620Z,19.43
2018-10-12T16:30:09.227Z,19.28
2018-10-12T16:32:37.801Z,19.16
2018-10-12T16:35:06.547Z,19.02
2018-10-12T16:37:35.297Z,18.94
2018-10-12T16:40:04.023Z,18.86
2018-10-12T16:42:33.566Z,18.76
2018-10-12T16:45:02.177Z,18.70
2018-10-12T16:47:30.795Z,18.64
2018-10-12T16:49:59.374Z,18.55
2018-10-12T16:52:28.079Z,18.50
2018-10-12T16:54:56.596Z,18.43
2018-10-12T16:57:32.166Z,18.32
2018-10-12T17:00:00.694Z,18.24
2018-10-12T17:02:29.274Z,18.16
2018-10-12T17:04:57.929Z,18.06
2018-10-12T17:07:26.491Z,17.97
2018-10-12T17:10:01.702Z,17.94
2018-10-12T17:12:30.314Z,17.88
2018-10-12T17:14:58.974Z,17.83
2018-10-12T17:17:27.487Z,17.74
2018-10-12T17:19:56.002Z,17.66
2018-10-12T17:22:24.597Z,17.57
2018-10-12T17:24:53.414Z,17.47
2018-10-12T17:27:22.099Z,17.40
2018-10-12T17:29:50.707Z,17.34
2018-10-12T17:32:19.336Z,17.29
2018-10-12T17:34:48.493Z,17.21
2018-10-12T17:37:17.114Z,17.15
2018-10-12T17:39:45.617Z,17.08
2018-10-12T17:42:16.699Z,16.99
2018-10-12T17:44:45.500Z,16.91
2018-10-12T17:47:14.938Z,16.83
2018-10-12T17:49:43.732Z,16.77
2018-10-12T17:52:13.323Z,16.70
2018-10-12T17:54:41.921Z,16.64
2018-10-12T17:57:10.666Z,16.56
2018-10-12T17:59:39.225Z,16.49
2018-10-12T18:02:07.969Z,16.43
2018-10-12T18:04:36.525Z,16.41
2018-10-12T18:07:05.518Z,16.32
2018-10-12T18:09:34.159Z,16.24
2018-10-12T18:12:02.941Z,16.18
2018-10-12T18:14:31.584Z,16.18
2018-10-12T18:17:00.520Z,16.17
2018-10-12T18:19:30.329Z,16.15
2018-10-12T18:21:58.929Z,16.12
2018-10-12T18:24:27.633Z,16.09
2018-10-12T18:26:56.294Z,16.08
2018-10-12T18:29:26.190Z,16.04
2018-10-12T18:31:54.938Z,16.02
2018-10-12T18:34:23.621Z,15.97
2018-10-12T18:36:52.199Z,15.93
2018-10-12T18:39:20.779Z,15.92
2018-10-12T18:41:49.524Z,15.86
2018-10-12T18:44:18.110Z,15.82
2018-10-12T18:46:46.933Z,15.79
2018-10-12T18:49:15.503Z,15.75
2018-10-12T18:51:44.124Z,15.68
2018-10-12T18:54:12.766Z,15.64
2018-10-12T18:56:42.374Z,15.58
2018-10-12T18:59:11.175Z,15.54
2018-10-12T19:01:39.811Z,15.51
2018-10-12T19:04:08.537Z,15.46
2018-10-12T19:06:37.241Z,15.45
2018-10-12T19:09:08.148Z,15.46
2018-10-12T19:11:36.750Z,15.50
2018-10-12T19:14:05.497Z,15.52
2018-10-12T19:16:34.423Z,15.49
2018-10-12T19:19:03.315Z,15.47
2018-10-12T19:21:31.939Z,15.43
2018-10-12T19:24:00.664Z,15.41
2018-10-12T19:26:30.223Z,15.35
2018-10-12T19:28:58.758Z,15.31
2018-10-12T19:31:27.656Z,15.27
2018-10-12T19:33:56.142Z,15.21
2018-10-12T19:36:24.756Z,15.13
2018-10-12T19:38:53.318Z,15.12
2018-10-12T19:41:21.863Z,15.09
2018-10-12T19:43:51.431Z,15.09
2018-10-12T19:46:22.053Z,15.08
2018-10-12T19:48:50.644Z,15.05
2018-10-12T19:51:19.507Z,15.00
2018-10-12T19:53:48.162Z,14.97
2018-10-12T19:56:16.862Z,14.89
2018-10-12T19:58:45.460Z,14.84
2018-10-12T20:01:14.008Z,14.77
2018-10-12T20:03:42.601Z,14.76
2018-10-12T20:06:11.191Z,14.74
2018-10-12T20:08:39.763Z,14.72
2018-10-12T20:11:09.182Z,14.72
2018-10-12T20:13:37.740Z,14.71
2018-10-12T20:16:06.614Z,14.66
2018-10-12T20:18:35.715Z,14.65
2018-10-12T20:21:04.464Z,14.66
2018-10-12T20:23:33.097Z,14.62
2018-10-12T20:26:01.765Z,14.63
2018-10-12T20:28:30.679Z,14.63
2018-10-12T20:30:59.572Z,14.61
2018-10-12T20:33:34.676Z,14.59
2018-10-12T20:36:03.375Z,14.57
2018-10-12T20:38:32.106Z,14.55
2018-10-12T20:41:01.774Z,14.54
2018-10-12T20:43:30.470Z,14.53
2018-10-12T20:45:59.077Z,14.51
2018-10-12T20:48:27.706Z,14.43
2018-10-12T20:50:56.476Z,14.38
2018-10-12T20:53:28.746Z,14.33
2018-10-12T20:55:57.401Z,14.30
2018-10-12T20:58:25.952Z,14.30
2018-10-12T21:00:54.508Z,14.30
2018-10-12T21:03:24.411Z,14.29
2018-10-12T21:05:54.989Z,14.29
2018-10-12T21:08:23.590Z,14.30
2018-10-12T21:10:54.143Z,14.32
2018-10-12T21:13:22.761Z,14.31
2018-10-12T21:15:51.244Z,14.30
2018-10-12T21:18:19.812Z,14.29
2018-10-12T21:20:48.330Z,14.26
2018-10-12T21:23:16.949Z,14.25
2018-10-12T21:25:46.610Z,14.21
2018-10-12T21:28:15.209Z,14.15
2018-10-12T21:30:43.842Z,14.11
2018-10-12T21:33:12.639Z,14.03
2018-10-12T21:35:41.529Z,13.96
2018-10-12T21:38:10.157Z,13.85
2018-10-12T21:40:38.767Z,13.79
2018-10-12T21:43:07.420Z,13.70
2018-10-12T21:45:35.966Z,13.57
2018-10-12T21:48:08.667Z,13.48
2018-10-12T21:50:37.352Z,13.36
2018-10-12T21:53:06.229Z,13.29
2018-10-12T21:55:35.006Z,13.15
2018-10-12T21:58:03.765Z,13.11
2018-10-12T22:00:33.074Z,13.05
2018-10-12T22:03:01.858Z,13.01
2018-10-12T22:05:30.684Z,12.97
2018-10-12T22:07:59.239Z,12.96
2018-10-12T22:10:27.860Z,12.93
2018-10-12T22:12:56.501Z,12.96
2018-10-12T22:15:25.235Z,12.97
2018-10-12T22:17:53.767Z,12.94
2018-10-12T22:20:22.625Z,12.70
2018-10-12T22:22:51.518Z,12.43
2018-10-12T22:25:20.186Z,12.27
2018-10-12T22:27:48.990Z,12.17
2018-10-12T22:30:17.796Z,12.01
2018-10-12T22:32:46.484Z,11.91
2018-10-12T22:35:15.130Z,11.78
2018-10-12T22:37:43.718Z,11.64
2018-10-12T22:40:12.290Z,11.58
2018-10-12T22:42:40.962Z,11.61
2018-10-12T22:45:09.554Z,11.59
2018-10-12T22:47:38.281Z,11.54
2018-10-12T22:50:06.929Z,11.50
2018-10-12T22:52:35.522Z,11.40
2018-10-12T22:55:04.337Z,11.34
2018-10-12T22:57:32.971Z,11.29
2018-10-12T23:00:01.746Z,11.19
2018-10-12T23:02:30.359Z,11.06
2018-10-12T23:04:58.950Z,10.97
2018-10-12T23:07:28.220Z,10.81
2018-10-12T23:09:56.776Z,10.74
2018-10-12T23:12:25.956Z,10.66
2018-10-12T23:14:54.627Z,10.64
2018-10-12T23:17:23.286Z,10.66
2018-10-12T23:19:52.998Z,10.64
2018-10-12T23:22:21.659Z,10.56
2018-10-12T23:24:50.370Z,10.49
2018-10-12T23:27:18.994Z,10.48
2018-10-12T23:29:47.518Z,10.52
2018-10-12T23:32:16.186Z,10.57
2018-10-12T23:34:44.854Z,10.61
2018-10-12T23:37:13.495Z,10.63
2018-10-12T23:39:42.089Z,10.62
2018-10-12T23:42:10.686Z,10.59
2018-10-12T23:44:39.431Z,10.58
2018-10-12T23:47:08.222Z,10.56
2018-10-12T23:49:36.809Z,10.59
2018-10-12T23:52:05.364Z,10.63
2018-10-12T23:54:33.900Z,10.64
2018-10-12T23:57:02.600Z,10.67
2018-10-12T23:59:31.301Z,10.68
